Time;durP1;ratioP1;P1;durP2;ratioP2;P2;SDS_P1;SDS_P2;PMS_P1;PMS_P2;Temp;Humidity;BMP_temperature;BMP_pressure;BME280_temperature;BME280_humidity;BME280_pressure;Samples;Min_cycle;Max_cycle;Signal;HPM_P1;HPM_P2
2021/05/07 00:01:55;;;;;;;3.38;1.05;;;;;;;4.21;65.06;100864.97;4938138;28;20030;-70
2021/05/07 00:04:22;;;;;;;3.75;1.10;;;;;;;4.13;65.10;100861.47;4938645;28;20118;-70
2021/05/07 00:06:50;;;;;;;4.22;1.42;;;;;;;4.02;65.27;100866.56;4956199;28;20050;-70
2021/05/07 00:09:15;;;;;;;3.17;0.90;;;;;;;3.90;65.82;100872.53;4939805;28;20062;-70
2021/05/07 00:11:41;;;;;;;2.45;0.80;;;;;;;3.70;66.18;100865.47;4937926;28;20107;-69
2021/05/07 00:14:06;;;;;;;3.03;0.90;;;;;;;3.60;66.82;100874.88;4943458;28;20058;-69
2021/05/07 00:16:32;;;;;;;2.88;0.98;;;;;;;3.58;66.93;100872.25;4920178;29;20469;-69
2021/05/07 00:18:57;;;;;;;3.58;1.10;;;;;;;3.56;66.71;100873.13;4940209;28;20490;-69
2021/05/07 00:21:24;;;;;;;3.05;1.20;;;;;;;3.50;66.88;100873.06;4938396;28;20027;-70
2021/05/07 00:23:51;;;;;;;2.45;0.93;;;;;;;3.44;67.10;100879.00;4953519;28;20035;-70
2021/05/07 00:26:16;;;;;;;3.70;1.10;;;;;;;3.43;67.33;100881.59;4938532;28;20020;-69
2021/05/07 00:28:42;;;;;;;5.55;1.35;;;;;;;3.32;67.87;100882.34;4936911;28;20857;-69
2021/05/07 00:31:07;;;;;;;3.67;1.15;;;;;;;3.35;67.67;100876.38;4943550;28;20023;-69
2021/05/07 00:33:33;;;;;;;2.13;0.80;;;;;;;3.46;67.53;100881.63;4942240;28;20023;-69
2021/05/07 00:35:58;;;;;;;2.78;1.05;;;;;;;3.45;67.41;100869.53;4946591;28;20015;-69
2021/05/07 00:38:24;;;;;;;2.92;1.08;;;;;;;3.46;67.50;100876.47;4935740;28;20027;-70
2021/05/07 00:40:50;;;;;;;3.75;1.15;;;;;;;3.35;67.74;100873.78;4940263;28;20502;-69
2021/05/07 00:43:15;;;;;;;2.88;0.95;;;;;;;3.46;67.77;100881.63;4947301;28;20027;-69
2021/05/07 00:45:42;;;;;;;5.75;1.10;;;;;;;3.36;67.92;100875.50;4926462;29;20031;-69
2021/05/07 00:48:16;;;;;;;2.92;1.10;;;;;;;3.33;67.83;100878.91;4937977;28;20046;-70
2021/05/07 00:50:44;;;;;;;2.97;1.20;;;;;;;3.30;68.05;100889.22;4953643;28;20027;-69
2021/05/07 00:53:10;;;;;;;2.58;1.05;;;;;;;3.34;68.11;100892.69;4960701;28;20538;-70
2021/05/07 00:55:37;;;;;;;3.15;1.02;;;;;;;3.42;67.97;100900.50;4943537;28;20031;-69
2021/05/07 00:58:03;;;;;;;3.13;1.13;;;;;;;3.38;67.99;100899.59;4959746;28;20035;-69
2021/05/07 01:00:32;;;;;;;2.97;1.20;;;;;;;3.36;67.77;100896.16;4935843;28;20031;-69
2021/05/07 01:02:58;;;;;;;4.20;1.27;;;;;;;3.24;68.39;100890.84;4944490;28;20062;-69
2021/05/07 01:05:24;;;;;;;2.75;1.05;;;;;;;3.19;68.51;100897.69;4943573;28;20023;-69
2021/05/07 01:07:50;;;;;;;4.57;1.00;;;;;;;3.14;69.04;100897.63;4929318;29;20038;-69
2021/05/07 01:10:17;;;;;;;4.97;1.13;;;;;;;3.05;69.35;100897.56;4944257;28;20033;-70
2021/05/07 01:12:43;;;;;;;3.35;1.05;;;;;;;3.07;69.22;100908.75;4945566;28;20063;-69
2021/05/07 01:15:24;;;;;;;3.60;1.00;;;;;;;3.04;69.59;100913.84;4938766;28;20030;-69
2021/05/07 01:17:55;;;;;;;2.03;0.68;;;;;;;2.86;69.77;100884.44;4936909;28;20038;-69
2021/05/07 01:20:25;;;;;;;2.80;1.00;;;;;;;2.94;69.79;100914.59;4950045;28;20091;-69
2021/05/07 01:22:53;;;;;;;2.80;0.90;;;;;;;2.88;69.93;100904.22;4953054;28;20035;-70
2021/05/07 01:25:43;;;;;;;2.72;0.90;;;;;;;2.96;69.83;100911.22;4953686;28;20713;-70
2021/05/07 01:28:11;;;;;;;2.80;1.73;;;;;;;2.93;69.79;100908.59;4937518;28;20039;-69
2021/05/07 01:30:44;;;;;;;2.25;0.80;;;;;;;2.89;70.08;100914.56;4945222;28;20023;-70
2021/05/07 01:33:11;;;;;;;1.95;0.95;;;;;;;2.95;70.03;100913.78;4952774;28;20043;-69
2021/05/07 01:35:37;;;;;;;3.90;1.00;;;;;;;2.89;69.98;100909.41;4937060;28;20027;-69
2021/05/07 01:38:05;;;;;;;3.45;1.23;;;;;;;2.89;70.26;100909.41;4950450;28;20031;-69
2021/05/07 01:40:32;;;;;;;3.15;1.00;;;;;;;2.68;71.21;100910.00;4936929;28;20038;-69
2021/05/07 01:42:58;;;;;;;4.47;1.10;;;;;;;2.85;70.86;100923.97;4951494;28;20872;-69
2021/05/07 01:45:29;;;;;;;1.67;0.90;;;;;;;2.85;70.64;100918.81;4946908;28;20102;-69
2021/05/07 01:47:55;;;;;;;2.97;0.90;;;;;;;2.80;71.02;100930.78;4953291;28;20063;-69
2021/05/07 01:50:24;;;;;;;0.95;0.70;;;;;;;2.77;71.34;100920.44;4946336;28;20090;-69
2021/05/07 01:52:50;;;;;;;3.20;1.10;;;;;;;2.73;71.44;100926.38;4960093;28;20035;-70
2021/05/07 01:55:18;;;;;;;1.25;0.70;;;;;;;2.71;71.59;100917.78;4971236;28;20031;-69
2021/05/07 01:57:44;;;;;;;2.25;0.80;;;;;;;2.63;71.79;100913.38;4954193;28;20023;-69
2021/05/07 02:00:13;;;;;;;2.13;0.90;;;;;;;2.58;72.21;100913.31;4950904;28;20494;-69
2021/05/07 02:02:39;;;;;;;2.45;0.93;;;;;;;2.55;72.38;100916.72;4939552;28;20031;-70
2021/05/07 02:05:06;;;;;;;2.65;1.05;;;;;;;2.51;72.46;100906.34;4942816;28;20027;-69
2021/05/07 02:07:32;;;;;;;4.45;1.30;;;;;;;2.51;72.69;100916.66;4953670;28;20037;-69
2021/05/07 02:09:58;;;;;;;1.40;0.68;;;;;;;2.49;72.67;100916.63;4931040;28;20027;-70
2021/05/07 02:12:23;;;;;;;2.95;1.15;;;;;;;2.44;73.21;100905.41;4953460;28;20062;-70
2021/05/07 02:14:49;;;;;;;2.45;1.02;;;;;;;2.37;73.16;100923.31;4952933;28;20106;-69
2021/05/07 02:17:14;;;;;;;4.75;1.08;;;;;;;2.40;73.23;100926.81;4954063;28;20038;-70
2021/05/07 02:19:40;;;;;;;3.15;0.80;;;;;;;2.40;73.28;100918.22;4958055;28;20035;-70
2021/05/07 02:22:05;;;;;;;1.70;0.88;;;;;;;2.34;73.50;100912.13;4940794;28;20019;-69
2021/05/07 02:24:31;;;;;;;2.95;1.02;;;;;;;2.29;73.58;100911.22;4924204;29;20023;-69
2021/05/07 02:26:56;;;;;;;1.67;0.95;;;;;;;2.31;73.90;100917.25;4939396;28;20505;-69
2021/05/07 02:29:22;;;;;;;1.92;0.82;;;;;;;2.37;73.62;100918.16;4948864;28;20023;-69
2021/05/07 02:31:47;;;;;;;3.53;1.10;;;;;;;2.24;74.18;100918.00;4960349;28;20035;-69
2021/05/07 02:34:13;;;;;;;3.58;1.10;;;;;;;2.24;74.18;100928.31;4943932;28;20050;-69
2021/05/07 02:36:39;;;;;;;2.00;1.00;;;;;;;2.21;74.45;100917.94;4945454;28;20648;-69
2021/05/07 02:39:06;;;;;;;2.30;0.75;;;;;;;2.26;74.36;100911.16;4935175;28;20073;-69
2021/05/07 02:41:32;;;;;;;2.10;0.90;;;;;;;2.15;74.60;100915.28;4948910;28;20118;-69
2021/05/07 02:43:58;;;;;;;1.80;0.80;;;;;;;2.11;74.58;100913.50;4940142;28;20085;-69
2021/05/07 02:46:23;;;;;;;2.22;0.77;;;;;;;2.03;74.95;100907.38;4937307;28;20428;-69
2021/05/07 02:48:48;;;;;;;3.85;0.85;;;;;;;1.98;75.21;100909.88;4941544;28;20059;-69
2021/05/07 02:51:14;;;;;;;2.10;0.80;;;;;;;1.92;75.45;100919.22;4953629;28;20050;-70
2021/05/07 02:53:39;;;;;;;2.92;1.00;;;;;;;1.81;76.08;100917.31;4935494;28;20035;-69
2021/05/07 02:56:05;;;;;;;2.67;0.88;;;;;;;1.84;76.06;100926.81;4937900;28;20110;-69
2021/05/07 02:58:31;;;;;;;1.52;0.70;;;;;;;1.78;76.33;100937.88;4943666;28;20027;-69
2021/05/07 03:00:56;;;;;;;2.05;0.68;;;;;;;1.75;76.57;100932.69;4946008;28;20027;-69
2021/05/07 03:03:22;;;;;;;4.32;0.73;;;;;;;1.68;76.96;100938.56;4939633;28;20046;-69
2021/05/07 03:05:47;;;;;;;2.25;0.68;;;;;;;1.52;77.20;100923.69;4939866;28;20027;-69
2021/05/07 03:08:13;;;;;;;2.72;0.95;;;;;;;1.56;77.08;100931.50;4927886;29;20069;-69
2021/05/07 03:10:38;;;;;;;2.83;1.00;;;;;;;1.50;77.37;100935.66;4944927;28;20031;-69
2021/05/07 03:13:04;;;;;;;1.45;0.60;;;;;;;1.48;77.31;100938.22;4945199;28;20514;-69
2021/05/07 03:15:30;;;;;;;4.20;1.08;;;;;;;1.50;77.48;100935.66;4938832;28;20027;-70
2021/05/07 03:17:55;;;;;;;1.95;0.85;;;;;;;1.52;77.60;100939.13;4940543;28;20062;-68
2021/05/07 03:20:22;;;;;;;2.97;1.05;;;;;;;1.53;77.62;100940.88;4938843;28;20019;-69
2021/05/07 03:22:48;;;;;;;5.10;1.27;;;;;;;1.52;77.62;100939.13;4952407;28;20423;-69
2021/05/07 03:25:14;;;;;;;2.92;0.95;;;;;;;1.42;77.93;100937.22;4937135;28;20031;-69
2021/05/07 03:27:40;;;;;;;1.80;0.75;;;;;;;1.43;78.02;100942.41;4938275;28;20027;-69
2021/05/07 03:30:06;;;;;;;3.28;1.17;;;;;;;1.41;77.68;100945.78;4934523;28;20050;-69
2021/05/07 03:32:32;;;;;;;2.70;0.80;;;;;;;1.22;78.46;100942.88;4944912;28;20483;-69
2021/05/07 03:34:57;;;;;;;1.65;0.80;;;;;;;1.26;78.18;100952.38;4940189;28;20019;-69
2021/05/07 03:37:22;;;;;;;3.05;1.10;;;;;;;1.26;78.19;100941.22;4944052;28;20482;-68
2021/05/07 03:39:48;;;;;;;2.55;1.00;;;;;;;1.26;78.26;100943.78;4939008;28;20030;-69
2021/05/07 03:42:15;;;;;;;3.05;0.90;;;;;;;1.23;78.35;100943.75;4959169;28;20114;-69
2021/05/07 03:44:40;;;;;;;2.92;1.00;;;;;;;1.18;78.29;100953.09;4956134;28;20085;-69
2021/05/07 03:47:05;;;;;;;1.95;0.93;;;;;;;1.15;78.65;100948.72;4933324;28;20387;-69
2021/05/07 03:49:31;;;;;;;3.45;1.00;;;;;;;1.11;78.64;100949.50;4954109;28;20031;-69
2021/05/07 03:51:57;;;;;;;3.30;1.00;;;;;;;1.08;79.10;100961.47;4955453;28;20023;-69
2021/05/07 03:54:23;;;;;;;1.85;1.20;;;;;;;1.02;79.22;100951.91;4942690;28;20053;-69
2021/05/07 03:56:48;;;;;;;2.72;0.95;;;;;;;1.02;79.25;100963.06;4926894;28;20031;-69
2021/05/07 03:59:15;;;;;;;4.35;1.48;;;;;;;0.98;79.11;100960.41;4948268;28;20090;-69
2021/05/07 04:01:40;;;;;;;2.97;0.88;;;;;;;1.02;79.28;100962.22;4923623;28;20019;-69
2021/05/07 04:04:08;;;;;;;2.28;0.80;;;;;;;1.00;79.24;100964.72;4933729;28;20085;-69
2021/05/07 04:06:34;;;;;;;1.73;0.75;;;;;;;0.93;79.52;100962.88;4945296;28;20027;-69
2021/05/07 04:09:10;;;;;;;2.63;0.77;;;;;;;0.92;79.49;100966.28;4939788;28;20364;-69
2021/05/07 04:14:04;;;;;;;3.90;1.00;;;;;;;1.00;79.30;100963.84;4947015;28;20050;-69
2021/05/07 04:16:31;;;;;;;2.60;1.10;;;;;;;0.94;79.05;100966.31;4943261;28;20488;-68
2021/05/07 04:18:56;;;;;;;2.55;0.82;;;;;;;0.88;79.27;100969.63;4941487;28;20035;-69
2021/05/07 04:21:23;;;;;;;3.10;1.10;;;;;;;0.79;80.13;100969.44;4928879;29;20027;-68
2021/05/07 04:23:49;;;;;;;2.13;0.80;;;;;;;0.83;79.85;100984.09;4955012;28;20130;-69
2021/05/07 04:26:14;;;;;;;2.58;0.85;;;;;;;0.69;80.19;100977.78;4934280;29;20041;-69
2021/05/07 04:28:40;;;;;;;2.30;0.90;;;;;;;0.77;79.91;100977.13;4941782;28;20482;-69
2021/05/07 04:31:05;;;;;;;1.90;0.80;;;;;;;0.71;80.19;100982.13;4941959;28;20062;-69
2021/05/07 04:33:32;;;;;;;3.50;1.10;;;;;;;0.71;80.30;100986.38;4941565;28;20079;-68
2021/05/07 04:35:57;;;;;;;2.22;0.80;;;;;;;0.70;80.15;100995.78;4939898;28;20494;-69
2021/05/07 04:38:23;;;;;;;3.20;1.10;;;;;;;0.75;80.26;100996.75;4953277;28;20032;-69
2021/05/07 04:40:48;;;;;;;1.92;1.00;;;;;;;0.68;80.75;100996.59;4953237;28;20019;-68
2021/05/07 04:43:14;;;;;;;3.38;1.27;;;;;;;0.66;80.81;100994.00;4947614;28;20467;-69
2021/05/07 04:45:39;;;;;;;8.13;1.80;;;;;;;0.63;81.14;100996.50;4944299;28;20038;-69
2021/05/07 04:48:15;;;;;;;2.35;0.90;;;;;;;0.73;80.75;101006.16;4935313;28;20046;-70
2021/05/07 04:50:41;;;;;;;1.02;0.65;;;;;;;0.81;80.74;101005.44;4949818;28;20031;-68
2021/05/07 04:53:07;;;;;;;1.98;0.80;;;;;;;0.82;80.58;101002.94;4937672;28;20439;-69
2021/05/07 04:55:32;;;;;;;2.85;1.02;;;;;;;0.77;80.33;101005.38;4959229;28;20034;-69
2021/05/07 04:57:58;;;;;;;3.88;1.10;;;;;;;0.73;80.68;101003.59;4941562;28;20483;-69
2021/05/07 05:00:23;;;;;;;2.40;1.05;;;;;;;0.74;81.03;101012.16;4927829;28;20024;-69
2021/05/07 05:02:49;;;;;;;2.72;0.85;;;;;;;0.75;81.26;101003.59;4949817;28;20037;-69
2021/05/07 05:05:16;;;;;;;2.90;0.90;;;;;;;0.80;81.14;101006.28;4923985;28;20035;-69
2021/05/07 05:07:56;;;;;;;2.35;0.73;;;;;;;0.77;81.46;101005.38;4945537;28;20035;-69
2021/05/07 05:10:22;;;;;;;2.97;0.85;;;;;;;0.88;81.29;101015.03;4932609;28;20067;-68
2021/05/07 05:12:47;;;;;;;1.85;0.90;;;;;;;0.92;81.00;101011.72;4969346;28;20461;-69
2021/05/07 05:15:13;;;;;;;3.08;0.95;;;;;;;0.85;81.24;101009.81;4940331;28;20039;-69
2021/05/07 05:17:39;;;;;;;2.35;0.60;;;;;;;0.93;81.17;101021.16;4934923;28;20061;-69
2021/05/07 05:20:07;;;;;;;2.28;1.05;;;;;;;0.95;81.26;101027.19;4944943;28;20035;-70
2021/05/07 05:22:32;;;;;;;3.30;1.20;;;;;;;0.91;81.60;101021.13;4938029;28;20031;-69
2021/05/07 05:25:03;;;;;;;3.60;0.98;;;;;;;0.91;81.31;101020.22;4935471;28;20034;-69
2021/05/07 05:27:29;;;;;;;2.60;1.08;;;;;;;0.87;81.34;101013.31;4939559;28;20019;-69
2021/05/07 05:29:54;;;;;;;3.55;1.08;;;;;;;0.95;81.34;101022.91;4928215;29;20045;-70
2021/05/07 05:32:21;;;;;;;4.05;1.00;;;;;;;0.87;81.21;101013.31;4942643;28;20031;-69
2021/05/07 05:34:46;;;;;;;2.78;0.73;;;;;;;0.88;81.69;101021.03;4942557;28;20027;-69
2021/05/07 05:37:12;;;;;;;1.90;0.77;;;;;;;0.93;81.36;101024.59;4947284;28;20121;-69
2021/05/07 05:39:37;;;;;;;1.83;0.88;;;;;;;0.96;81.26;101013.47;4945266;28;20086;-69
2021/05/07 05:42:03;;;;;;;3.30;0.98;;;;;;;1.03;81.42;101025.66;4943526;28;20015;-69
2021/05/07 05:44:28;;;;;;;2.38;1.13;;;;;;;1.11;81.43;101029.22;4936311;28;20031;-69
2021/05/07 05:46:54;;;;;;;3.03;0.77;;;;;;;1.16;81.26;101027.63;4944432;28;20027;-69
2021/05/07 05:49:20;;;;;;;4.40;1.30;;;;;;;1.35;81.11;101033.16;4945458;28;20054;-69
2021/05/07 05:51:46;;;;;;;1.80;0.75;;;;;;;1.40;80.81;101036.69;4926880;28;20027;-69
2021/05/07 05:54:13;;;;;;;3.25;1.00;;;;;;;1.42;81.07;101035.91;4927643;28;20492;-69
2021/05/07 05:56:39;;;;;;;2.45;0.98;;;;;;;1.55;80.99;101031.84;4930756;28;20038;-69
2021/05/07 05:59:05;;;;;;;1.48;0.70;;;;;;;1.60;80.76;101030.22;4942807;28;20438;-69
2021/05/07 06:01:31;;;;;;;2.67;0.90;;;;;;;1.73;80.71;101042.50;4945451;28;20098;-69
2021/05/07 06:03:56;;;;;;;3.60;0.90;;;;;;;1.83;80.39;101052.97;4940479;28;20467;-69
2021/05/07 06:06:21;;;;;;;1.60;0.93;;;;;;;1.84;80.49;101049.56;4943865;28;20026;-69
2021/05/07 06:08:47;;;;;;;6.60;1.20;;;;;;;2.00;80.06;101055.00;4941683;28;20023;-69
2021/05/07 06:11:13;;;;;;;3.58;0.68;;;;;;;2.05;80.19;101055.94;4944929;28;20035;-69
2021/05/07 06:13:39;;;;;;;3.05;0.82;;;;;;;2.10;79.92;101053.47;4940790;28;20058;-69
2021/05/07 06:16:05;;;;;;;2.50;0.85;;;;;;;2.17;80.07;101060.44;4957304;28;20027;-68
2021/05/07 06:18:30;;;;;;;1.83;0.80;;;;;;;2.22;79.85;101058.81;4933134;28;20102;-69
2021/05/07 06:20:56;;;;;;;2.75;1.15;;;;;;;2.31;79.13;101063.25;4926081;29;20046;-69
2021/05/07 06:23:22;;;;;;;2.30;0.90;;;;;;;2.34;79.78;101059.03;4926003;29;20159;-69
2021/05/07 06:25:49;;;;;;;2.78;0.98;;;;;;;2.43;79.72;101067.72;4940675;28;20125;-69
2021/05/07 06:28:15;;;;;;;2.53;0.90;;;;;;;2.56;79.56;101059.38;4939597;28;20039;-68
2021/05/07 06:30:40;;;;;;;2.33;0.90;;;;;;;2.63;79.21;101060.31;4957239;28;20914;-69
2021/05/07 06:33:06;;;;;;;2.47;1.30;;;;;;;2.72;79.28;101056.16;4944876;28;20106;-69
2021/05/07 06:35:31;;;;;;;2.25;1.10;;;;;;;2.84;78.30;101060.66;4956788;28;20032;-69
2021/05/07 06:37:59;;;;;;;3.35;1.10;;;;;;;3.01;78.67;101063.47;4950407;28;20031;-69
2021/05/07 06:40:25;;;;;;;2.33;0.70;;;;;;;2.89;78.66;101071.00;4933145;28;20028;-69
2021/05/07 06:42:51;;;;;;;2.53;0.82;;;;;;;3.01;79.01;101069.50;4963576;28;20039;-69
2021/05/07 06:45:17;;;;;;;5.35;1.35;;;;;;;2.96;78.52;101058.25;4952908;28;20034;-69
2021/05/07 06:47:42;;;;;;;1.85;1.00;;;;;;;3.15;79.00;101061.94;4966794;28;20031;-69
2021/05/07 06:50:09;;;;;;;2.72;1.10;;;;;;;3.26;78.48;101057.78;4957603;28;20516;-69
2021/05/07 06:52:34;;;;;;;2.30;0.93;;;;;;;3.42;77.54;101065.72;4946243;28;20182;-69
2021/05/07 06:55:00;;;;;;;3.55;0.93;;;;;;;3.39;77.59;101061.38;4947871;28;20558;-69
2021/05/07 06:57:26;;;;;;;3.55;1.17;;;;;;;3.51;77.97;101060.69;4944323;28;20024;-69
2021/05/07 06:59:52;;;;;;;3.78;1.13;;;;;;;3.57;77.53;101069.34;4932964;28;20123;-69
2021/05/07 07:02:18;;;;;;;2.80;1.05;;;;;;;3.76;78.84;101069.56;4955738;28;20030;-69
2021/05/07 07:04:47;;;;;;;4.60;1.27;;;;;;;3.80;77.99;101068.72;4930030;28;20039;-69
2021/05/07 07:07:14;;;;;;;5.50;1.30;;;;;;;3.88;77.75;101062.81;4937242;28;20090;-68
2021/05/07 07:09:40;;;;;;;4.22;0.88;;;;;;;3.89;76.79;101069.69;4939840;28;20459;-69
2021/05/07 07:12:06;;;;;;;4.40;0.70;;;;;;;4.10;77.50;101065.59;4957059;28;20110;-69
2021/05/07 07:14:36;;;;;;;5.82;1.40;;;;;;;4.22;76.46;101067.44;4936904;28;20077;-69
2021/05/07 07:17:02;;;;;;;2.70;1.00;;;;;;;4.32;76.64;101067.53;4926321;28;20042;-70
2021/05/07 07:19:27;;;;;;;4.15;1.27;;;;;;;4.45;76.73;101070.22;4924775;29;20023;-69
2021/05/07 07:21:53;;;;;;;2.80;1.10;;;;;;;4.42;76.16;101071.94;4939074;28;20038;-69
2021/05/07 07:24:19;;;;;;;5.03;1.30;;;;;;;4.38;76.34;101072.75;4936187;28;20065;-70
2021/05/07 07:26:45;;;;;;;3.10;1.15;;;;;;;4.45;75.74;101075.38;4943456;28;20050;-70
2021/05/07 07:29:10;;;;;;;1.48;0.82;;;;;;;4.56;76.04;101068.56;4940905;28;20035;-69
2021/05/07 07:31:36;;;;;;;3.08;1.00;;;;;;;4.62;76.40;101069.50;4940902;28;20079;-69
2021/05/07 07:34:02;;;;;;;2.33;1.02;;;;;;;4.75;75.10;101074.75;4940876;28;20048;-69
2021/05/07 07:36:27;;;;;;;2.33;1.00;;;;;;;4.87;75.14;101069.69;4943684;28;20065;-70
2021/05/07 07:38:53;;;;;;;3.58;0.80;;;;;;;4.80;75.05;101084.28;4937810;28;20067;-69
2021/05/07 07:41:18;;;;;;;4.28;1.17;;;;;;;5.01;74.52;101082.69;4944207;28;20050;-70
2021/05/07 07:43:45;;;;;;;3.30;1.10;;;;;;;5.11;76.01;101068.94;4933889;28;20100;-69
2021/05/07 07:46:10;;;;;;;3.42;1.15;;;;;;;5.20;75.22;101082.81;4934123;28;20035;-70
2021/05/07 07:48:36;;;;;;;2.80;0.90;;;;;;;5.27;75.42;101091.50;4958983;28;20442;-70
2021/05/07 07:51:01;;;;;;;3.17;1.33;;;;;;;5.32;75.01;101083.72;4942294;28;20031;-70
2021/05/07 07:53:27;;;;;;;3.15;1.13;;;;;;;5.48;73.31;101098.50;4944816;28;20044;-70
2021/05/07 07:55:53;;;;;;;3.58;1.25;;;;;;;5.59;75.31;101095.97;4937932;28;20023;-69
2021/05/07 07:58:18;;;;;;;2.17;0.80;;;;;;;5.62;73.57;101093.34;4951683;28;20086;-70
2021/05/07 08:00:46;;;;;;;3.28;1.00;;;;;;;5.63;73.13;101089.94;4926760;28;20034;-70
2021/05/07 08:03:11;;;;;;;4.78;1.05;;;;;;;5.61;73.13;101099.41;4953108;28;20027;-67
2021/05/07 08:05:37;;;;;;;2.95;1.15;;;;;;;5.80;73.04;101102.94;4925616;28;20050;-69
2021/05/07 08:08:03;;;;;;;2.53;0.82;;;;;;;5.77;73.80;101092.53;4936477;28;20034;-69
2021/05/07 08:10:30;;;;;;;2.28;1.00;;;;;;;5.90;72.37;101100.38;4934982;28;20567;-70
2021/05/07 08:12:55;;;;;;;3.17;0.73;;;;;;;5.92;72.29;101103.84;4951863;28;20047;-70
2021/05/07 08:15:21;;;;;;;2.40;1.00;;;;;;;6.17;72.17;101097.00;4922913;28;20042;-70
2021/05/07 08:17:47;;;;;;;5.03;1.10;;;;;;;6.31;71.09;101091.84;4932663;28;20070;-70
2021/05/07 08:20:16;;;;;;;3.17;1.10;;;;;;;6.22;70.80;101102.19;4937514;28;20027;-70
2021/05/07 08:22:43;;;;;;;2.50;1.10;;;;;;;6.39;71.50;101104.84;4929974;28;20386;-69
2021/05/07 08:25:12;;;;;;;4.53;1.27;;;;;;;6.53;69.15;101107.41;4934944;28;20050;-69
2021/05/07 08:27:39;;;;;;;1.65;0.90;;;;;;;6.35;70.15;101109.16;4939583;28;20035;-69
2021/05/07 08:30:05;;;;;;;4.05;1.02;;;;;;;6.60;70.58;101111.75;4951966;28;20028;-70
2021/05/07 08:32:31;;;;;;;4.28;1.10;;;;;;;6.79;68.00;101105.66;4924543;29;20031;-69
2021/05/07 08:34:57;;;;;;;3.22;1.15;;;;;;;6.75;69.80;101103.97;4929702;28;20106;-69
2021/05/07 08:37:22;;;;;;;4.55;1.30;;;;;;;6.83;68.43;101102.22;4945208;28;20032;-69
2021/05/07 08:39:47;;;;;;;4.63;1.00;;;;;;;6.83;66.37;101097.03;4940815;28;20051;-70
2021/05/07 08:42:13;;;;;;;3.13;1.20;;;;;;;6.84;65.32;101103.94;4934247;28;20553;-69
2021/05/07 08:44:39;;;;;;;3.33;1.40;;;;;;;6.94;67.42;101100.47;4943183;28;20041;-69
2021/05/07 08:47:05;;;;;;;3.50;1.10;;;;;;;6.93;66.84;101096.13;4943472;28;20026;-70
2021/05/07 08:49:30;;;;;;;5.82;1.38;;;;;;;7.00;68.49;101099.63;4931948;28;20507;-69
2021/05/07 08:51:57;;;;;;;5.25;1.05;;;;;;;7.23;66.86;101102.16;4945942;28;20087;-70
2021/05/07 08:54:23;;;;;;;4.43;1.33;;;;;;;7.60;68.14;101102.03;4937392;28;20122;-70
2021/05/07 08:56:50;;;;;;;4.15;1.33;;;;;;;7.86;65.21;101102.78;4938570;28;20110;-70
2021/05/07 08:59:16;;;;;;;3.70;1.00;;;;;;;7.90;63.35;101101.00;4938510;28;20031;-70
2021/05/07 09:01:43;;;;;;;5.13;0.88;;;;;;;8.02;61.17;101096.63;4946369;28;20023;-70
2021/05/07 09:04:10;;;;;;;4.15;0.90;;;;;;;8.54;58.67;101109.31;4944620;28;20020;-69
2021/05/07 09:06:53;;;;;;;4.40;1.10;;;;;;;9.05;54.83;101101.91;4947006;28;20074;-70
2021/05/07 09:09:22;;;;;;;4.40;0.50;;;;;;;9.34;53.47;101101.59;4947266;28;20106;-70
2021/05/07 09:11:48;;;;;;;2.08;0.57;;;;;;;9.69;53.15;101102.06;4952385;28;20134;-67
2021/05/07 09:14:14;;;;;;;2.10;0.70;;;;;;;9.53;52.28;101086.63;4934562;28;20211;-67
2021/05/07 09:16:59;;;;;;;5.93;0.80;;;;;;;9.31;52.28;101095.56;4945855;28;20031;-68
2021/05/07 09:19:34;;;;;;;1.35;0.50;;;;;;;10.61;48.74;101093.78;4952138;28;20035;-67
2021/05/07 09:22:00;;;;;;;2.42;0.60;;;;;;;11.54;45.49;101092.06;4933938;28;20487;-67
2021/05/07 09:24:36;;;;;;;2.03;0.65;;;;;;;12.23;43.75;101087.97;4938566;28;20114;-68
2021/05/07 09:27:03;;;;;;;3.22;1.38;;;;;;;12.83;38.59;101094.38;4935109;28;20106;-68
2021/05/07 09:29:32;;;;;;;1.98;0.55;;;;;;;13.64;38.38;101100.91;4936172;28;20043;-68
2021/05/07 09:32:03;;;;;;;2.15;0.68;;;;;;;14.37;35.16;101097.81;4936298;28;20465;-69
2021/05/07 09:34:34;;;;;;;3.90;0.60;;;;;;;15.27;34.61;101094.78;4943294;28;20030;-68
2021/05/07 09:37:00;;;;;;;1.23;0.50;;;;;;;15.47;32.96;101094.06;4938070;28;20031;-68
2021/05/07 09:39:27;;;;;;;2.20;0.63;;;;;;;15.53;33.36;101098.22;4942527;28;20034;-68
2021/05/07 09:41:53;;;;;;;2.58;0.70;;;;;;;16.25;33.46;101098.97;4934500;28;20032;-68
2021/05/07 09:44:22;;;;;;;1.50;0.70;;;;;;;16.94;31.73;101095.31;4937549;28;20040;-68
2021/05/07 09:46:49;;;;;;;1.70;0.80;;;;;;;17.22;30.85;101094.97;4935168;28;20125;-68
2021/05/07 09:49:39;;;;;;;1.92;0.70;;;;;;;17.88;29.47;101093.72;4951189;28;20120;-68
2021/05/07 09:52:05;;;;;;;3.80;0.73;;;;;;;15.39;32.72;101100.50;4938629;28;20031;-68
2021/05/07 09:54:31;;;;;;;2.45;0.77;;;;;;;16.13;33.25;101103.91;4932464;28;20027;-69
2021/05/07 09:56:57;;;;;;;3.90;0.80;;;;;;;17.68;30.11;101096.41;4928805;28;20027;-68
2021/05/07 09:59:23;;;;;;;3.00;0.80;;;;;;;17.63;27.69;101104.53;4953170;28;20027;-68
2021/05/07 10:01:49;;;;;;;3.40;0.90;;;;;;;18.49;26.56;101102.28;4932858;28;20035;-69
2021/05/07 10:04:16;;;;;;;2.00;0.70;;;;;;;17.03;28.76;101102.81;4949913;28;20023;-68
2021/05/07 10:06:42;;;;;;;2.80;0.73;;;;;;;19.47;25.56;101094.66;4936166;28;20039;-68
2021/05/07 10:09:09;;;;;;;1.80;0.65;;;;;;;20.79;24.32;101102.28;4951510;28;20481;-68
2021/05/07 10:11:42;;;;;;;2.45;0.88;;;;;;;20.49;24.02;101096.97;4952975;28;20525;-68
2021/05/07 10:14:13;;;;;;;0.85;0.50;;;;;;;18.01;28.68;101109.00;4935700;28;20063;-68
2021/05/07 10:16:39;;;;;;;2.25;0.60;;;;;;;15.68;32.28;101105.59;4949367;28;20058;-68
2021/05/07 10:19:07;;;;;;;1.98;0.60;;;;;;;15.36;32.36;101112.00;4932140;28;20034;-68
2021/05/07 10:21:35;;;;;;;;;;;;;;;14.79;33.91;101110.47;4953815;28;20034;-68
2021/05/07 10:24:01;;;;;;;1.75;0.50;;;;;;;15.03;32.13;101090.38;4927930;29;20366;-68
2021/05/07 10:26:40;;;;;;;2.00;0.60;;;;;;;14.74;33.96;101108.00;4949967;28;20027;-68
2021/05/07 10:29:22;;;;;;;2.72;0.60;;;;;;;14.62;34.39;101112.81;4952325;28;20046;-67
2021/05/07 10:31:50;;;;;;;1.67;0.60;;;;;;;13.68;35.53;101117.41;4932214;28;20043;-68
2021/05/07 10:34:15;;;;;;;;;;;;;;;13.53;34.13;101118.72;4958531;28;20023;-68
2021/05/07 10:36:44;;;;;;;2.15;0.50;;;;;;;13.15;35.00;101111.88;4931853;28;20430;-67
2021/05/07 10:39:20;;;;;;;2.42;0.80;;;;;;;16.90;28.65;101114.84;4939085;28;20554;-68
2021/05/07 10:41:47;;;;;;;2.13;0.70;;;;;;;19.82;24.71;101104.22;4942133;28;20023;-68
2021/05/07 10:44:15;;;;;;;1.13;0.63;;;;;;;21.55;22.16;101095.97;4949041;28;20114;-69
2021/05/07 10:46:42;;;;;;;2.10;0.60;;;;;;;19.86;23.37;101108.41;4939400;28;20677;-68
2021/05/07 10:49:08;;;;;;;2.70;0.63;;;;;;;18.36;26.14;101109.97;4947941;28;20117;-68
2021/05/07 10:51:33;;;;;;;1.85;0.75;;;;;;;18.49;25.36;101120.78;4949861;28;20035;-68
2021/05/07 10:54:06;;;;;;;1.55;0.60;;;;;;;20.58;20.90;101106.16;4936732;28;20030;-68
2021/05/07 10:56:35;;;;;;;0.93;0.50;;;;;;;20.88;22.28;101109.69;4940046;28;20102;-68
2021/05/07 10:59:14;;;;;;;2.65;0.70;;;;;;;22.25;20.97;101104.75;4953634;28;20034;-68
2021/05/07 11:01:40;;;;;;;2.42;0.70;;;;;;;19.41;25.85;101112.59;4949013;28;20058;-68
2021/05/07 11:04:11;;;;;;;3.15;0.90;;;;;;;19.78;23.97;101110.63;4928002;28;20028;-68
2021/05/07 11:06:42;;;;;;;2.38;0.70;;;;;;;20.04;24.80;101117.16;4952187;28;20412;-68
2021/05/07 11:09:20;;;;;;;1.63;0.63;;;;;;;22.68;21.67;101108.13;4940791;28;20817;-68
2021/05/07 11:11:47;;;;;;;3.35;0.63;;;;;;;24.76;19.27;101101.31;4928238;29;20031;-68
2021/05/07 11:14:43;;;;;;;1.80;0.68;;;;;;;26.00;17.59;101113.00;4945048;28;20521;-68
2021/05/07 11:17:18;;;;;;;2.15;0.60;;;;;;;25.99;17.52;101102.44;4947079;28;20045;-68
2021/05/07 11:19:44;;;;;;;2.42;0.80;;;;;;;25.95;16.69;101099.16;4938702;28;20036;-69
2021/05/07 11:22:10;;;;;;;1.60;0.68;;;;;;;25.55;16.77;101097.00;4935472;28;20032;-69
2021/05/07 11:24:39;;;;;;;2.10;0.70;;;;;;;27.83;14.82;101090.38;4941576;28;20066;-68
2021/05/07 11:27:27;;;;;;;2.47;0.70;;;;;;;28.49;14.65;101087.97;4953003;28;20030;-69
2021/05/07 11:29:59;;;;;;;1.67;0.50;;;;;;;25.40;16.61;101087.53;4965363;28;20703;-69
2021/05/07 11:32:25;;;;;;;1.63;0.52;;;;;;;22.34;19.68;101085.53;4936471;28;20110;-68
2021/05/07 11:34:54;;;;;;;0.60;0.35;;;;;;;21.68;19.63;101083.59;4939633;28;20637;-69